Terminal Aerodrome Forecast
Issued by NWS

Current Version | Previous Version | Graphics & Text | Print | Product List | Glossary On
Versions: 1 2 3 4 5 6 7 8 9 10 11 12 13 14 15 16 17 18 19 20 21 22 23 24
000
FTUS41 KRNK 152341 CCA
TAFLWB
TAF COR
KLWB 152341Z 1600/1624 VRB03KT P6SM SCT035
     FM160800 00000KT 1/2SM FG OVC001
     FM161400 00000KT P6SM SCT025=

USA.gov is the U.S. government's official web portal to all federal, state and local government web resources and services.